sensor_id;sensor_type;location;lat;lon;timestamp;P1;durP1;ratioP1;P2;durP2;ratioP2
41643;SDS011;44236;48.098;11.582;2023-04-24T00:00:25;1.27;;;0.70;;
41643;SDS011;44236;48.098;11.582;2023-04-24T00:02:50;2.63;;;0.68;;
41643;SDS011;44236;48.098;11.582;2023-04-24T00:05:16;1.10;;;0.60;;
41643;SDS011;44236;48.098;11.582;2023-04-24T00:07:45;1.48;;;0.80;;
41643;SDS011;44236;48.098;11.582;2023-04-24T00:10:11;1.92;;;0.80;;
41643;SDS011;44236;48.098;11.582;2023-04-24T00:12:37;1.30;;;0.70;;
41643;SDS011;44236;48.098;11.582;2023-04-24T00:15:03;1.15;;;0.65;;
41643;SDS011;44236;48.098;11.582;2023-04-24T00:17:29;1.23;;;0.55;;
41643;SDS011;44236;48.098;11.582;2023-04-24T00:19:55;0.80;;;0.68;;
41643;SDS011;44236;48.098;11.582;2023-04-24T00:22:26;1.42;;;0.73;;
41643;SDS011;44236;48.098;11.582;2023-04-24T00:24:52;0.90;;;0.50;;
41643;SDS011;44236;48.098;11.582;2023-04-24T00:27:18;0.75;;;0.50;;
41643;SDS011;44236;48.098;11.582;2023-04-24T00:29:44;1.58;;;0.75;;
41643;SDS011;44236;48.098;11.582;2023-04-24T00:32:09;1.10;;;0.52;;
41643;SDS011;44236;48.098;11.582;2023-04-24T00:34:35;2.05;;;1.08;;
41643;SDS011;44236;48.098;11.582;2023-04-24T00:37:01;2.35;;;0.73;;
41643;SDS011;44236;48.098;11.582;2023-04-24T00:39:27;1.42;;;0.65;;
41643;SDS011;44236;48.098;11.582;2023-04-24T00:41:52;1.13;;;0.70;;
41643;SDS011;44236;48.098;11.582;2023-04-24T00:44:18;1.58;;;0.68;;
41643;SDS011;44236;48.098;11.582;2023-04-24T00:46:44;1.40;;;0.55;;
41643;SDS011;44236;48.098;11.582;2023-04-24T00:49:12;1.50;;;0.60;;
41643;SDS011;44236;48.098;11.582;2023-04-24T00:51:38;1.17;;;0.82;;
41643;SDS011;44236;48.098;11.582;2023-04-24T00:54:05;0.68;;;0.40;;
41643;SDS011;44236;48.098;11.582;2023-04-24T00:56:31;0.95;;;0.60;;
41643;SDS011;44236;48.098;11.582;2023-04-24T00:58:57;0.85;;;0.60;;
41643;SDS011;44236;48.098;11.582;2023-04-24T01:01:23;0.88;;;0.60;;
41643;SDS011;44236;48.098;11.582;2023-04-24T01:03:49;1.75;;;0.75;;
41643;SDS011;44236;48.098;11.582;2023-04-24T01:06:16;0.63;;;0.50;;
41643;SDS011;44236;48.098;11.582;2023-04-24T01:08:43;0.90;;;0.60;;
41643;SDS011;44236;48.098;11.582;2023-04-24T01:11:10;0.95;;;0.60;;
41643;SDS011;44236;48.098;11.582;2023-04-24T01:13:36;0.70;;;0.50;;
41643;SDS011;44236;48.098;11.582;2023-04-24T01:16:02;1.10;;;0.60;;
41643;SDS011;44236;48.098;11.582;2023-04-24T01:18:27;0.55;;;0.43;;
41643;SDS011;44236;48.098;11.582;2023-04-24T01:20:54;0.55;;;0.43;;
41643;SDS011;44236;48.098;11.582;2023-04-24T01:23:23;1.45;;;0.68;;
41643;SDS011;44236;48.098;11.582;2023-04-24T01:25:48;0.75;;;0.50;;
41643;SDS011;44236;48.098;11.582;2023-04-24T01:28:15;0.55;;;0.40;;
41643;SDS011;44236;48.098;11.582;2023-04-24T01:30:41;0.47;;;0.43;;
41643;SDS011;44236;48.098;11.582;2023-04-24T01:33:07;1.10;;;0.40;;
41643;SDS011;44236;48.098;11.582;2023-04-24T01:35:33;0.77;;;0.30;;
41643;SDS011;44236;48.098;11.582;2023-04-24T01:37:59;1.33;;;0.50;;
41643;SDS011;44236;48.098;11.582;2023-04-24T01:40:25;1.25;;;0.50;;
41643;SDS011;44236;48.098;11.582;2023-04-24T01:42:50;0.75;;;0.57;;
41643;SDS011;44236;48.098;11.582;2023-04-24T01:45:16;0.80;;;0.80;;
41643;SDS011;44236;48.098;11.582;2023-04-24T01:47:42;0.68;;;0.52;;
41643;SDS011;44236;48.098;11.582;2023-04-24T01:50:09;0.55;;;0.30;;
41643;SDS011;44236;48.098;11.582;2023-04-24T01:52:34;0.98;;;0.50;;
41643;SDS011;44236;48.098;11.582;2023-04-24T01:55:01;1.33;;;0.52;;
41643;SDS011;44236;48.098;11.582;2023-04-24T01:57:27;0.30;;;0.30;;
41643;SDS011;44236;48.098;11.582;2023-04-24T01:59:55;0.82;;;0.50;;
41643;SDS011;44236;48.098;11.582;2023-04-24T02:02:21;0.65;;;0.50;;
41643;SDS011;44236;48.098;11.582;2023-04-24T02:04:48;1.45;;;0.70;;
41643;SDS011;44236;48.098;11.582;2023-04-24T02:07:14;2.58;;;0.50;;
41643;SDS011;44236;48.098;11.582;2023-04-24T02:09:44;0.22;;;0.22;;
41643;SDS011;44236;48.098;11.582;2023-04-24T02:12:10;0.52;;;0.38;;
41643;SDS011;44236;48.098;11.582;2023-04-24T02:14:35;0.28;;;0.28;;
41643;SDS011;44236;48.098;11.582;2023-04-24T02:17:01;0.70;;;0.50;;
41643;SDS011;44236;48.098;11.582;2023-04-24T02:19:26;0.55;;;0.50;;
41643;SDS011;44236;48.098;11.582;2023-04-24T02:21:52;0.90;;;0.40;;
41643;SDS011;44236;48.098;11.582;2023-04-24T02:24:18;1.00;;;0.40;;
41643;SDS011;44236;48.098;11.582;2023-04-24T02:26:44;3.13;;;0.60;;
41643;SDS011;44236;48.098;11.582;2023-04-24T02:29:09;0.40;;;0.40;;
41643;SDS011;44236;48.098;11.582;2023-04-24T02:31:35;1.20;;;0.57;;
41643;SDS011;44236;48.098;11.582;2023-04-24T02:34:01;0.40;;;0.30;;
41643;SDS011;44236;48.098;11.582;2023-04-24T02:36:26;0.40;;;0.40;;
41643;SDS011;44236;48.098;11.582;2023-04-24T02:38:52;0.40;;;0.40;;
41643;SDS011;44236;48.098;11.582;2023-04-24T02:41:18;0.70;;;0.40;;
41643;SDS011;44236;48.098;11.582;2023-04-24T02:43:43;0.40;;;0.40;;
41643;SDS011;44236;48.098;11.582;2023-04-24T02:46:12;0.43;;;0.40;;
41643;SDS011;44236;48.098;11.582;2023-04-24T02:48:38;1.05;;;0.75;;
41643;SDS011;44236;48.098;11.582;2023-04-24T02:51:03;0.98;;;0.40;;
41643;SDS011;44236;48.098;11.582;2023-04-24T02:53:29;1.25;;;0.40;;
41643;SDS011;44236;48.098;11.582;2023-04-24T02:55:55;0.43;;;0.35;;
41643;SDS011;44236;48.098;11.582;2023-04-24T02:58:21;0.73;;;0.57;;
41643;SDS011;44236;48.098;11.582;2023-04-24T03:00:47;0.75;;;0.43;;
41643;SDS011;44236;48.098;11.582;2023-04-24T03:03:13;0.25;;;0.22;;
41643;SDS011;44236;48.098;11.582;2023-04-24T03:05:39;0.55;;;0.22;;
41643;SDS011;44236;48.098;11.582;2023-04-24T03:08:04;0.57;;;0.50;;
41643;SDS011;44236;48.098;11.582;2023-04-24T03:10:31;0.32;;;0.30;;
41643;SDS011;44236;48.098;11.582;2023-04-24T03:12:57;0.25;;;0.20;;
41643;SDS011;44236;48.098;11.582;2023-04-24T03:15:23;0.30;;;0.30;;
41643;SDS011;44236;48.098;11.582;2023-04-24T03:17:48;0.32;;;0.30;;
41643;SDS011;44236;48.098;11.582;2023-04-24T03:20:15;0.40;;;0.40;;
41643;SDS011;44236;48.098;11.582;2023-04-24T03:22:41;0.22;;;0.22;;
41643;SDS011;44236;48.098;11.582;2023-04-24T03:25:06;0.50;;;0.30;;
41643;SDS011;44236;48.098;11.582;2023-04-24T03:27:34;0.52;;;0.32;;
41643;SDS011;44236;48.098;11.582;2023-04-24T03:30:00;0.63;;;0.40;;
41643;SDS011;44236;48.098;11.582;2023-04-24T03:32:26;0.47;;;0.40;;
41643;SDS011;44236;48.098;11.582;2023-04-24T03:34:51;0.30;;;0.30;;
41643;SDS011;44236;48.098;11.582;2023-04-24T03:37:17;0.20;;;0.20;;
41643;SDS011;44236;48.098;11.582;2023-04-24T03:39:42;0.20;;;0.20;;
41643;SDS011;44236;48.098;11.582;2023-04-24T03:42:08;0.40;;;0.30;;
41643;SDS011;44236;48.098;11.582;2023-04-24T03:44:34;0.68;;;0.40;;
41643;SDS011;44236;48.098;11.582;2023-04-24T03:47:00;0.45;;;0.40;;
41643;SDS011;44236;48.098;11.582;2023-04-24T03:49:26;0.90;;;0.32;;
41643;SDS011;44236;48.098;11.582;2023-04-24T03:51:52;0.45;;;0.35;;
41643;SDS011;44236;48.098;11.582;2023-04-24T03:54:18;0.30;;;0.30;;
41643;SDS011;44236;48.098;11.582;2023-04-24T03:56:44;0.20;;;0.20;;
41643;SDS011;44236;48.098;11.582;2023-04-24T03:59:10;1.63;;;0.28;;
41643;SDS011;44236;48.098;11.582;2023-04-24T04:01:36;0.22;;;0.22;;
41643;SDS011;44236;48.098;11.582;2023-04-24T04:04:02;0.35;;;0.30;;
41643;SDS011;44236;48.098;11.582;2023-04-24T04:06:28;0.20;;;0.20;;
41643;SDS011;44236;48.098;11.582;2023-04-24T04:08:55;0.22;;;0.22;;
41643;SDS011;44236;48.098;11.582;2023-04-24T04:11:21;0.55;;;0.50;;
41643;SDS011;44236;48.098;11.582;2023-04-24T04:13:47;0.80;;;0.22;;
41643;SDS011;44236;48.098;11.582;2023-04-24T04:16:13;0.20;;;0.20;;
41643;SDS011;44236;48.098;11.582;2023-04-24T04:18:39;0.20;;;0.20;;
41643;SDS011;44236;48.098;11.582;2023-04-24T04:21:04;0.25;;;0.17;;
41643;SDS011;44236;48.098;11.582;2023-04-24T04:23:30;0.52;;;0.30;;
41643;SDS011;44236;48.098;11.582;2023-04-24T04:25:56;0.25;;;0.20;;
41643;SDS011;44236;48.098;11.582;2023-04-24T04:28:22;0.93;;;0.30;;
41643;SDS011;44236;48.098;11.582;2023-04-24T04:30:49;0.20;;;0.20;;
41643;SDS011;44236;48.098;11.582;2023-04-24T04:33:18;0.20;;;0.20;;
41643;SDS011;44236;48.098;11.582;2023-04-24T04:35:45;0.40;;;0.40;;
41643;SDS011;44236;48.098;11.582;2023-04-24T04:38:13;0.30;;;0.30;;
41643;SDS011;44236;48.098;11.582;2023-04-24T04:40:40;0.20;;;0.20;;
41643;SDS011;44236;48.098;11.582;2023-04-24T04:43:06;0.35;;;0.35;;
41643;SDS011;44236;48.098;11.582;2023-04-24T04:45:31;0.68;;;0.40;;
41643;SDS011;44236;48.098;11.582;2023-04-24T04:47:58;0.52;;;0.20;;
41643;SDS011;44236;48.098;11.582;2023-04-24T04:50:25;0.32;;;0.30;;
41643;SDS011;44236;48.098;11.582;2023-04-24T04:52:51;0.20;;;0.20;;
41643;SDS011;44236;48.098;11.582;2023-04-24T04:55:17;0.63;;;0.43;;
41643;SDS011;44236;48.098;11.582;2023-04-24T04:57:44;0.38;;;0.32;;
41643;SDS011;44236;48.098;11.582;2023-04-24T05:00:11;0.73;;;0.40;;
41643;SDS011;44236;48.098;11.582;2023-04-24T05:02:37;0.47;;;0.28;;
41643;SDS011;44236;48.098;11.582;2023-04-24T05:05:03;0.38;;;0.20;;
41643;SDS011;44236;48.098;11.582;2023-04-24T05:07:30;0.38;;;0.20;;
41643;SDS011;44236;48.098;11.582;2023-04-24T05:09:56;0.20;;;0.20;;
41643;SDS011;44236;48.098;11.582;2023-04-24T05:12:21;1.65;;;0.30;;
41643;SDS011;44236;48.098;11.582;2023-04-24T05:14:47;0.15;;;0.15;;
41643;SDS011;44236;48.098;11.582;2023-04-24T05:17:15;0.30;;;0.30;;
41643;SDS011;44236;48.098;11.582;2023-04-24T05:19:42;0.10;;;0.10;;
41643;SDS011;44236;48.098;11.582;2023-04-24T05:22:07;0.10;;;0.10;;
41643;SDS011;44236;48.098;11.582;2023-04-24T05:24:34;1.27;;;0.32;;
41643;SDS011;44236;48.098;11.582;2023-04-24T05:27:01;0.28;;;0.20;;
41643;SDS011;44236;48.098;11.582;2023-04-24T05:29:30;1.75;;;0.20;;
41643;SDS011;44236;48.098;11.582;2023-04-24T05:31:56;1.90;;;0.30;;
41643;SDS011;44236;48.098;11.582;2023-04-24T05:34:22;0.95;;;0.20;;
41643;SDS011;44236;48.098;11.582;2023-04-24T05:36:48;0.20;;;0.20;;
41643;SDS011;44236;48.098;11.582;2023-04-24T05:39:15;1.02;;;0.20;;
41643;SDS011;44236;48.098;11.582;2023-04-24T05:41:41;0.32;;;0.30;;
41643;SDS011;44236;48.098;11.582;2023-04-24T05:44:06;0.65;;;0.50;;
41643;SDS011;44236;48.098;11.582;2023-04-24T05:46:32;1.13;;;0.40;;
41643;SDS011;44236;48.098;11.582;2023-04-24T05:48:58;1.60;;;0.40;;
41643;SDS011;44236;48.098;11.582;2023-04-24T05:51:23;1.45;;;0.68;;
41643;SDS011;44236;48.098;11.582;2023-04-24T05:53:49;3.92;;;0.55;;
41643;SDS011;44236;48.098;11.582;2023-04-24T05:56:15;0.88;;;0.35;;
41643;SDS011;44236;48.098;11.582;2023-04-24T05:58:41;0.30;;;0.28;;
41643;SDS011;44236;48.098;11.582;2023-04-24T06:01:06;2.45;;;0.30;;
41643;SDS011;44236;48.098;11.582;2023-04-24T06:03:32;1.05;;;0.47;;
41643;SDS011;44236;48.098;11.582;2023-04-24T06:05:58;4.10;;;0.95;;
41643;SDS011;44236;48.098;11.582;2023-04-24T06:08:24;0.45;;;0.40;;
41643;SDS011;44236;48.098;11.582;2023-04-24T06:10:50;1.10;;;0.50;;
41643;SDS011;44236;48.098;11.582;2023-04-24T06:13:16;0.20;;;0.20;;
41643;SDS011;44236;48.098;11.582;2023-04-24T06:15:41;0.82;;;0.50;;
41643;SDS011;44236;48.098;11.582;2023-04-24T06:18:08;0.98;;;0.40;;
41643;SDS011;44236;48.098;11.582;2023-04-24T06:20:35;0.65;;;0.40;;
41643;SDS011;44236;48.098;11.582;2023-04-24T06:23:01;1.20;;;0.40;;
41643;SDS011;44236;48.098;11.582;2023-04-24T06:25:27;1.73;;;0.40;;
41643;SDS011;44236;48.098;11.582;2023-04-24T06:27:53;1.15;;;0.47;;
41643;SDS011;44236;48.098;11.582;2023-04-24T06:30:19;1.42;;;0.50;;
41643;SDS011;44236;48.098;11.582;2023-04-24T06:32:45;4.78;;;0.30;;
41643;SDS011;44236;48.098;11.582;2023-04-24T06:35:11;6.88;;;0.60;;
41643;SDS011;44236;48.098;11.582;2023-04-24T06:37:37;3.03;;;0.50;;
41643;SDS011;44236;48.098;11.582;2023-04-24T06:40:04;0.90;;;0.30;;
41643;SDS011;44236;48.098;11.582;2023-04-24T06:42:31;1.17;;;0.43;;
41643;SDS011;44236;48.098;11.582;2023-04-24T06:44:56;2.35;;;0.55;;
41643;SDS011;44236;48.098;11.582;2023-04-24T06:47:22;1.83;;;0.60;;
41643;SDS011;44236;48.098;11.582;2023-04-24T06:49:48;6.90;;;0.60;;
41643;SDS011;44236;48.098;11.582;2023-04-24T06:52:15;0.47;;;0.28;;
41643;SDS011;44236;48.098;11.582;2023-04-24T06:54:41;1.55;;;0.40;;
41643;SDS011;44236;48.098;11.582;2023-04-24T06:57:07;1.90;;;0.40;;
41643;SDS011;44236;48.098;11.582;2023-04-24T06:59:33;1.65;;;0.38;;
41643;SDS011;44236;48.098;11.582;2023-04-24T07:01:59;2.35;;;0.40;;
41643;SDS011;44236;48.098;11.582;2023-04-24T07:04:25;1.60;;;0.45;;
41643;SDS011;44236;48.098;11.582;2023-04-24T07:06:51;0.65;;;0.28;;
41643;SDS011;44236;48.098;11.582;2023-04-24T07:09:19;2.55;;;0.22;;
41643;SDS011;44236;48.098;11.582;2023-04-24T07:11:45;0.25;;;0.20;;
41643;SDS011;44236;48.098;11.582;2023-04-24T07:14:11;1.63;;;0.50;;
41643;SDS011;44236;48.098;11.582;2023-04-24T07:16:37;1.13;;;0.50;;
41643;SDS011;44236;48.098;11.582;2023-04-24T07:19:02;0.30;;;0.20;;
41643;SDS011;44236;48.098;11.582;2023-04-24T07:21:28;0.80;;;0.50;;
41643;SDS011;44236;48.098;11.582;2023-04-24T07:23:56;3.30;;;0.32;;
41643;SDS011;44236;48.098;11.582;2023-04-24T07:26:21;0.40;;;0.20;;
41643;SDS011;44236;48.098;11.582;2023-04-24T07:28:47;0.30;;;0.30;;
41643;SDS011;44236;48.098;11.582;2023-04-24T07:31:13;0.70;;;0.40;;
41643;SDS011;44236;48.098;11.582;2023-04-24T07:33:38;0.22;;;0.20;;
41643;SDS011;44236;48.098;11.582;2023-04-24T07:36:04;0.60;;;0.20;;
41643;SDS011;44236;48.098;11.582;2023-04-24T07:38:30;1.58;;;0.40;;
41643;SDS011;44236;48.098;11.582;2023-04-24T07:40:56;0.20;;;0.10;;
41643;SDS011;44236;48.098;11.582;2023-04-24T07:43:21;0.20;;;0.13;;
41643;SDS011;44236;48.098;11.582;2023-04-24T07:45:48;3.42;;;0.22;;
41643;SDS011;44236;48.098;11.582;2023-04-24T07:48:17;0.30;;;0.28;;
41643;SDS011;44236;48.098;11.582;2023-04-24T07:50:43;0.50;;;0.20;;
41643;SDS011;44236;48.098;11.582;2023-04-24T07:53:09;0.50;;;0.25;;
41643;SDS011;44236;48.098;11.582;2023-04-24T07:55:35;3.13;;;0.40;;
41643;SDS011;44236;48.098;11.582;2023-04-24T07:58:04;7.20;;;0.80;;
41643;SDS011;44236;48.098;11.582;2023-04-24T08:00:30;0.73;;;0.28;;
41643;SDS011;44236;48.098;11.582;2023-04-24T08:02:56;0.35;;;0.10;;
41643;SDS011;44236;48.098;11.582;2023-04-24T08:05:21;0.55;;;0.25;;
41643;SDS011;44236;48.098;11.582;2023-04-24T08:07:47;1.67;;;0.40;;
41643;SDS011;44236;48.098;11.582;2023-04-24T08:10:15;0.25;;;0.25;;
41643;SDS011;44236;48.098;11.582;2023-04-24T08:12:41;0.20;;;0.20;;
41643;SDS011;44236;48.098;11.582;2023-04-24T08:15:06;0.43;;;0.22;;
41643;SDS011;44236;48.098;11.582;2023-04-24T08:17:33;0.77;;;0.25;;
41643;SDS011;44236;48.098;11.582;2023-04-24T08:20:00;0.28;;;0.20;;
41643;SDS011;44236;48.098;11.582;2023-04-24T08:22:27;1.48;;;0.30;;
41643;SDS011;44236;48.098;11.582;2023-04-24T08:24:53;0.70;;;0.20;;
41643;SDS011;44236;48.098;11.582;2023-04-24T08:27:19;0.82;;;0.30;;
41643;SDS011;44236;48.098;11.582;2023-04-24T08:29:44;0.32;;;0.20;;
41643;SDS011;44236;48.098;11.582;2023-04-24T08:32:10;0.28;;;0.28;;
41643;SDS011;44236;48.098;11.582;2023-04-24T08:34:36;0.82;;;0.20;;
41643;SDS011;44236;48.098;11.582;2023-04-24T08:37:02;0.22;;;0.20;;
41643;SDS011;44236;48.098;11.582;2023-04-24T08:39:28;0.30;;;0.30;;
41643;SDS011;44236;48.098;11.582;2023-04-24T08:41:54;0.52;;;0.10;;
41643;SDS011;44236;48.098;11.582;2023-04-24T08:44:20;2.08;;;0.20;;
41643;SDS011;44236;48.098;11.582;2023-04-24T08:46:47;0.28;;;0.20;;
41643;SDS011;44236;48.098;11.582;2023-04-24T08:49:14;0.50;;;0.25;;
41643;SDS011;44236;48.098;11.582;2023-04-24T08:51:43;0.38;;;0.28;;
41643;SDS011;44236;48.098;11.582;2023-04-24T08:54:13;1.90;;;0.30;;
41643;SDS011;44236;48.098;11.582;2023-04-24T08:56:39;0.40;;;0.20;;
41643;SDS011;44236;48.098;11.582;2023-04-24T08:59:08;0.43;;;0.30;;
41643;SDS011;44236;48.098;11.582;2023-04-24T09:01:34;0.57;;;0.30;;
41643;SDS011;44236;48.098;11.582;2023-04-24T09:04:02;0.30;;;0.30;;
41643;SDS011;44236;48.098;11.582;2023-04-24T09:06:29;1.35;;;0.38;;
41643;SDS011;44236;48.098;11.582;2023-04-24T09:08:57;0.30;;;0.30;;
41643;SDS011;44236;48.098;11.582;2023-04-24T09:11:26;0.17;;;0.17;;
41643;SDS011;44236;48.098;11.582;2023-04-24T09:13:52;0.57;;;0.20;;
41643;SDS011;44236;48.098;11.582;2023-04-24T09:16:19;0.20;;;0.20;;
41643;SDS011;44236;48.098;11.582;2023-04-24T09:18:45;0.10;;;0.10;;
41643;SDS011;44236;48.098;11.582;2023-04-24T09:21:11;0.30;;;0.20;;
41643;SDS011;44236;48.098;11.582;2023-04-24T09:23:37;0.63;;;0.20;;
41643;SDS011;44236;48.098;11.582;2023-04-24T09:26:04;0.22;;;0.20;;
41643;SDS011;44236;48.098;11.582;2023-04-24T09:31:08;0.20;;;0.17;;
41643;SDS011;44236;48.098;11.582;2023-04-24T09:33:38;0.15;;;0.15;;
41643;SDS011;44236;48.098;11.582;2023-04-24T09:36:03;0.20;;;0.20;;
41643;SDS011;44236;48.098;11.582;2023-04-24T09:38:31;0.65;;;0.22;;
41643;SDS011;44236;48.098;11.582;2023-04-24T09:41:02;0.50;;;0.40;;
41643;SDS011;44236;48.098;11.582;2023-04-24T09:43:30;0.10;;;0.10;;
41643;SDS011;44236;48.098;11.582;2023-04-24T09:45:56;0.15;;;0.15;;
41643;SDS011;44236;48.098;11.582;2023-04-24T09:48:30;0.35;;;0.28;;
41643;SDS011;44236;48.098;11.582;2023-04-24T09:50:57;0.43;;;0.30;;
41643;SDS011;44236;48.098;11.582;2023-04-24T09:53:26;0.17;;;0.10;;
41643;SDS011;44236;48.098;11.582;2023-04-24T09:55:53;0.35;;;0.20;;
41643;SDS011;44236;48.098;11.582;2023-04-24T09:58:25;0.50;;;0.40;;
41643;SDS011;44236;48.098;11.582;2023-04-24T10:00:54;0.45;;;0.20;;
41643;SDS011;44236;48.098;11.582;2023-04-24T10:03:23;0.30;;;0.30;;
41643;SDS011;44236;48.098;11.582;2023-04-24T10:05:52;0.82;;;0.40;;
41643;SDS011;44236;48.098;11.582;2023-04-24T10:08:18;0.20;;;0.20;;
41643;SDS011;44236;48.098;11.582;2023-04-24T10:10:45;0.17;;;0.17;;
41643;SDS011;44236;48.098;11.582;2023-04-24T10:13:12;0.17;;;0.17;;
41643;SDS011;44236;48.098;11.582;2023-04-24T10:15:40;1.17;;;0.68;;
41643;SDS011;44236;48.098;11.582;2023-04-24T10:18:06;0.52;;;0.38;;
41643;SDS011;44236;48.098;11.582;2023-04-24T10:20:33;0.32;;;0.30;;
41643;SDS011;44236;48.098;11.582;2023-04-24T10:23:00;0.20;;;0.20;;
41643;SDS011;44236;48.098;11.582;2023-04-24T10:25:29;0.20;;;0.20;;
41643;SDS011;44236;48.098;11.582;2023-04-24T10:27:57;0.20;;;0.20;;
41643;SDS011;44236;48.098;11.582;2023-04-24T10:30:25;0.32;;;0.30;;
41643;SDS011;44236;48.098;11.582;2023-04-24T10:32:52;0.63;;;0.30;;
41643;SDS011;44236;48.098;11.582;2023-04-24T10:35:18;0.50;;;0.47;;
41643;SDS011;44236;48.098;11.582;2023-04-24T10:37:59;0.82;;;0.40;;
41643;SDS011;44236;48.098;11.582;2023-04-24T10:40:32;0.40;;;0.20;;
41643;SDS011;44236;48.098;11.582;2023-04-24T10:42:59;0.50;;;0.30;;
41643;SDS011;44236;48.098;11.582;2023-04-24T10:45:27;0.40;;;0.40;;
41643;SDS011;44236;48.098;11.582;2023-04-24T10:47:56;1.15;;;0.43;;
41643;SDS011;44236;48.098;11.582;2023-04-24T10:50:28;0.30;;;0.30;;
41643;SDS011;44236;48.098;11.582;2023-04-24T10:53:07;0.20;;;0.20;;
41643;SDS011;44236;48.098;11.582;2023-04-24T10:55:47;0.73;;;0.33;;
41643;SDS011;44236;48.098;11.582;2023-04-24T10:58:22;0.40;;;0.30;;
41643;SDS011;44236;48.098;11.582;2023-04-24T11:00:55;0.47;;;0.38;;
41643;SDS011;44236;48.098;11.582;2023-04-24T11:03:23;0.52;;;0.40;;
41643;SDS011;44236;48.098;11.582;2023-04-24T11:05:57;3.42;;;1.00;;
41643;SDS011;44236;48.098;11.582;2023-04-24T11:08:25;0.43;;;0.25;;
41643;SDS011;44236;48.098;11.582;2023-04-24T11:10:55;0.30;;;0.30;;
41643;SDS011;44236;48.098;11.582;2023-04-24T11:13:23;0.75;;;0.32;;
41643;SDS011;44236;48.098;11.582;2023-04-24T11:18:38;0.30;;;0.20;;
41643;SDS011;44236;48.098;11.582;2023-04-24T11:21:12;0.22;;;0.22;;
41643;SDS011;44236;48.098;11.582;2023-04-24T11:23:38;3.53;;;0.60;;
41643;SDS011;44236;48.098;11.582;2023-04-24T11:26:11;0.85;;;0.30;;
41643;SDS011;44236;48.098;11.582;2023-04-24T11:28:43;1.15;;;0.35;;
41643;SDS011;44236;48.098;11.582;2023-04-24T11:34:14;6.07;;;1.63;;
41643;SDS011;44236;48.098;11.582;2023-04-24T11:36:47;7.00;;;1.92;;
41643;SDS011;44236;48.098;11.582;2023-04-24T11:39:14;10.80;;;2.90;;
41643;SDS011;44236;48.098;11.582;2023-04-24T11:41:40;11.63;;;3.63;;
41643;SDS011;44236;48.098;11.582;2023-04-24T11:44:06;9.45;;;2.53;;
41643;SDS011;44236;48.098;11.582;2023-04-24T11:46:33;9.88;;;2.65;;
41643;SDS011;44236;48.098;11.582;2023-04-24T11:48:59;7.90;;;3.17;;
41643;SDS011;44236;48.098;11.582;2023-04-24T11:51:25;11.40;;;3.50;;
41643;SDS011;44236;48.098;11.582;2023-04-24T11:53:55;10.52;;;2.70;;
41643;SDS011;44236;48.098;11.582;2023-04-24T11:56:22;8.00;;;2.38;;
41643;SDS011;44236;48.098;11.582;2023-04-24T11:58:48;9.60;;;2.45;;
41643;SDS011;44236;48.098;11.582;2023-04-24T12:01:16;6.47;;;2.25;;
41643;SDS011;44236;48.098;11.582;2023-04-24T12:03:46;8.93;;;3.33;;
41643;SDS011;44236;48.098;11.582;2023-04-24T12:06:13;8.05;;;2.22;;
41643;SDS011;44236;48.098;11.582;2023-04-24T12:08:39;10.75;;;2.45;;
41643;SDS011;44236;48.098;11.582;2023-04-24T12:11:05;14.07;;;2.83;;
41643;SDS011;44236;48.098;11.582;2023-04-24T12:13:32;9.68;;;2.55;;
41643;SDS011;44236;48.098;11.582;2023-04-24T12:15:58;9.48;;;2.40;;
41643;SDS011;44236;48.098;11.582;2023-04-24T12:18:25;6.88;;;1.85;;
41643;SDS011;44236;48.098;11.582;2023-04-24T12:20:51;8.68;;;1.90;;
41643;SDS011;44236;48.098;11.582;2023-04-24T12:23:28;9.32;;;2.00;;
41643;SDS011;44236;48.098;11.582;2023-04-24T12:26:03;4.18;;;1.48;;
41643;SDS011;44236;48.098;11.582;2023-04-24T12:28:36;6.28;;;1.75;;
41643;SDS011;44236;48.098;11.582;2023-04-24T12:31:02;6.00;;;1.42;;
41643;SDS011;44236;48.098;11.582;2023-04-24T12:33:31;4.20;;;1.85;;
41643;SDS011;44236;48.098;11.582;2023-04-24T12:35:58;9.32;;;2.20;;
41643;SDS011;44236;48.098;11.582;2023-04-24T12:38:28;5.63;;;1.40;;
41643;SDS011;44236;48.098;11.582;2023-04-24T12:41:05;5.05;;;1.17;;
41643;SDS011;44236;48.098;11.582;2023-04-24T12:43:32;5.35;;;1.42;;
41643;SDS011;44236;48.098;11.582;2023-04-24T12:45:58;4.68;;;1.33;;
41643;SDS011;44236;48.098;11.582;2023-04-24T12:48:24;7.30;;;1.13;;
41643;SDS011;44236;48.098;11.582;2023-04-24T12:50:51;6.00;;;1.13;;
41643;SDS011;44236;48.098;11.582;2023-04-24T12:53:16;6.90;;;1.60;;
41643;SDS011;44236;48.098;11.582;2023-04-24T12:55:42;5.25;;;1.60;;
41643;SDS011;44236;48.098;11.582;2023-04-24T12:58:09;6.40;;;1.83;;
41643;SDS011;44236;48.098;11.582;2023-04-24T13:00:35;5.15;;;1.38;;
41643;SDS011;44236;48.098;11.582;2023-04-24T13:03:01;3.40;;;0.90;;
41643;SDS011;44236;48.098;11.582;2023-04-24T13:05:27;2.83;;;1.30;;
41643;SDS011;44236;48.098;11.582;2023-04-24T13:07:52;3.03;;;1.58;;
41643;SDS011;44236;48.098;11.582;2023-04-24T13:10:18;3.55;;;1.02;;
41643;SDS011;44236;48.098;11.582;2023-04-24T13:12:44;3.63;;;1.52;;
41643;SDS011;44236;48.098;11.582;2023-04-24T13:15:11;3.88;;;1.40;;
41643;SDS011;44236;48.098;11.582;2023-04-24T13:17:37;4.65;;;1.90;;
41643;SDS011;44236;48.098;11.582;2023-04-24T13:20:03;5.45;;;1.75;;
41643;SDS011;44236;48.098;11.582;2023-04-24T13:22:29;5.63;;;1.50;;
41643;SDS011;44236;48.098;11.582;2023-04-24T13:24:55;4.50;;;1.35;;
41643;SDS011;44236;48.098;11.582;2023-04-24T13:27:21;7.72;;;1.33;;
41643;SDS011;44236;48.098;11.582;2023-04-24T13:29:46;3.63;;;1.30;;
41643;SDS011;44236;48.098;11.582;2023-04-24T13:32:12;5.85;;;1.30;;
41643;SDS011;44236;48.098;11.582;2023-04-24T13:34:38;7.05;;;1.55;;
41643;SDS011;44236;48.098;11.582;2023-04-24T13:37:04;4.95;;;1.20;;
41643;SDS011;44236;48.098;11.582;2023-04-24T13:39:29;6.07;;;1.48;;
41643;SDS011;44236;48.098;11.582;2023-04-24T13:41:56;5.22;;;1.73;;
41643;SDS011;44236;48.098;11.582;2023-04-24T13:44:22;5.38;;;1.65;;
41643;SDS011;44236;48.098;11.582;2023-04-24T13:46:49;4.38;;;1.63;;
41643;SDS011;44236;48.098;11.582;2023-04-24T13:49:17;4.15;;;1.25;;
41643;SDS011;44236;48.098;11.582;2023-04-24T13:51:43;4.28;;;1.23;;
41643;SDS011;44236;48.098;11.582;2023-04-24T13:54:09;8.15;;;1.38;;
41643;SDS011;44236;48.098;11.582;2023-04-24T13:56:35;6.53;;;1.25;;
41643;SDS011;44236;48.098;11.582;2023-04-24T13:59:00;3.33;;;0.93;;
41643;SDS011;44236;48.098;11.582;2023-04-24T14:01:27;2.33;;;1.00;;
41643;SDS011;44236;48.098;11.582;2023-04-24T14:03:52;1.50;;;0.80;;
41643;SDS011;44236;48.098;11.582;2023-04-24T14:06:19;5.18;;;1.10;;
41643;SDS011;44236;48.098;11.582;2023-04-24T14:08:45;3.15;;;1.13;;
41643;SDS011;44236;48.098;11.582;2023-04-24T14:11:11;2.47;;;1.05;;
41643;SDS011;44236;48.098;11.582;2023-04-24T14:13:37;3.45;;;0.95;;
41643;SDS011;44236;48.098;11.582;2023-04-24T14:16:03;5.05;;;1.70;;
41643;SDS011;44236;48.098;11.582;2023-04-24T14:18:29;3.28;;;1.35;;
41643;SDS011;44236;48.098;11.582;2023-04-24T14:20:58;2.22;;;0.80;;
41643;SDS011;44236;48.098;11.582;2023-04-24T14:23:26;5.68;;;1.10;;
41643;SDS011;44236;48.098;11.582;2023-04-24T14:25:51;5.68;;;1.30;;
41643;SDS011;44236;48.098;11.582;2023-04-24T14:28:18;7.78;;;1.40;;
41643;SDS011;44236;48.098;11.582;2023-04-24T14:30:45;7.10;;;1.00;;
41643;SDS011;44236;48.098;11.582;2023-04-24T14:33:11;5.50;;;1.40;;
41643;SDS011;44236;48.098;11.582;2023-04-24T14:35:37;4.47;;;1.00;;
41643;SDS011;44236;48.098;11.582;2023-04-24T14:38:03;5.63;;;1.02;;